createdAt,value
2018-03-06T00:00:24.427Z,4.34
2018-03-06T00:01:30.945Z,4.29
2018-03-06T00:02:35.463Z,4.22
2018-03-06T00:03:41.975Z,4.10
2018-03-06T00:04:46.476Z,4.10
2018-03-06T00:05:51.963Z,4.16
2018-03-06T00:06:58.520Z,4.18
2018-03-06T00:08:02.997Z,4.10
2018-03-06T00:09:09.513Z,4.06
2018-03-06T00:10:14.022Z,4.04
2018-03-06T00:11:19.515Z,4.01
2018-03-06T00:12:26.045Z,3.98
2018-03-06T00:13:30.528Z,4.03
2018-03-06T00:14:37.063Z,3.96
2018-03-06T00:15:41.548Z,3.85
2018-03-06T00:16:47.144Z,3.79
2018-03-06T00:17:53.570Z,3.80
2018-03-06T00:18:58.066Z,3.72
2018-03-06T00:20:04.597Z,3.67
2018-03-06T00:21:09.088Z,3.79
2018-03-06T00:22:14.602Z,3.71
2018-03-06T00:23:21.103Z,3.70
2018-03-06T00:24:25.610Z,3.70
2018-03-06T00:25:32.119Z,3.58
2018-03-06T00:26:36.767Z,3.53
2018-03-06T00:27:42.145Z,3.53
2018-03-06T00:28:48.654Z,3.58
2018-03-06T00:29:53.152Z,3.46
2018-03-06T00:30:59.669Z,3.53
2018-03-06T00:32:04.163Z,3.46
2018-03-06T00:33:09.698Z,3.46
2018-03-06T00:34:16.185Z,3.49
2018-03-06T00:35:20.673Z,3.49
2018-03-06T00:36:27.199Z,3.40
2018-03-06T00:37:31.707Z,3.33
2018-03-06T00:38:37.197Z,3.36
2018-03-06T00:39:43.731Z,3.39
2018-03-06T00:40:48.246Z,3.28
2018-03-06T00:41:54.732Z,3.33
2018-03-06T00:42:59.248Z,3.25
2018-03-06T00:44:04.739Z,3.30
2018-03-06T00:45:11.258Z,3.24
2018-03-06T00:46:15.756Z,3.16
2018-03-06T00:47:22.288Z,3.05
2018-03-06T00:48:26.778Z,3.13
2018-03-06T00:49:32.296Z,3.10
2018-03-06T00:50:38.807Z,3.15
2018-03-06T00:51:43.293Z,3.06
2018-03-06T00:52:49.813Z,3.03
2018-03-06T00:53:54.345Z,3.05
2018-03-06T00:54:59.824Z,2.98
2018-03-06T00:56:06.347Z,3.06
2018-03-06T00:57:10.845Z,3.03
2018-03-06T00:58:17.352Z,2.97
2018-03-06T00:59:21.850Z,2.92
2018-03-06T01:00:27.368Z,2.98
2018-03-06T01:01:33.878Z,2.98
2018-03-06T01:02:38.367Z,2.97
2018-03-06T01:03:44.977Z,3.00
2018-03-06T01:04:49.385Z,2.98
2018-03-06T01:05:54.903Z,3.02
2018-03-06T01:07:01.404Z,2.97
2018-03-06T01:08:05.947Z,3.09
2018-03-06T01:09:12.432Z,2.95
2018-03-06T01:10:16.924Z,3.03
2018-03-06T01:11:22.432Z,2.94
2018-03-06T01:12:28.947Z,2.98
2018-03-06T01:13:33.443Z,3.07
2018-03-06T01:14:39.960Z,3.03
2018-03-06T01:15:44.469Z,3.00
2018-03-06T01:16:49.956Z,2.95
2018-03-06T01:17:56.486Z,2.98
2018-03-06T01:19:00.974Z,2.97
2018-03-06T01:20:07.506Z,2.98
2018-03-06T01:21:11.994Z,3.00
2018-03-06T01:22:17.516Z,3.03
2018-03-06T01:23:24.013Z,2.95
2018-03-06T01:24:28.515Z,2.95
2018-03-06T01:25:35.081Z,2.97
2018-03-06T01:26:39.539Z,3.03
2018-03-06T01:27:45.041Z,2.98
2018-03-06T01:28:51.543Z,3.02
2018-03-06T01:29:56.049Z,3.03
2018-03-06T01:31:02.571Z,3.02
2018-03-06T01:32:07.078Z,2.98
2018-03-06T01:33:12.569Z,2.91
2018-03-06T01:34:19.095Z,2.88
2018-03-06T01:35:23.588Z,2.95
2018-03-06T01:36:30.101Z,3.00
2018-03-06T01:37:34.624Z,2.95
2018-03-06T01:38:40.097Z,2.89
2018-03-06T01:39:46.616Z,2.97
2018-03-06T01:40:51.119Z,2.91
2018-03-06T01:41:57.634Z,2.98
2018-03-06T01:43:02.130Z,3.00
2018-03-06T01:44:07.653Z,2.98
2018-03-06T01:45:14.207Z,2.98
2018-03-06T01:46:18.666Z,2.92
2018-03-06T01:47:25.164Z,3.05
2018-03-06T01:48:29.679Z,3.02
2018-03-06T01:49:35.224Z,3.05
2018-03-06T01:50:41.689Z,3.06
2018-03-06T01:51:46.186Z,3.03
2018-03-06T01:52:52.699Z,2.98
2018-03-06T01:53:57.205Z,3.00
2018-03-06T01:55:02.711Z,2.98
2018-03-06T01:56:09.229Z,3.06
2018-03-06T01:57:13.733Z,2.95
2018-03-06T01:58:20.260Z,3.02
2018-03-06T01:59:24.748Z,2.97
2018-03-06T02:00:30.241Z,3.03
2018-03-06T02:01:36.766Z,2.94
2018-03-06T02:02:41.261Z,2.92
2018-03-06T02:03:47.780Z,2.89
2018-03-06T02:04:52.275Z,2.92
2018-03-06T02:05:57.801Z,2.94
2018-03-06T02:07:04.308Z,3.03
2018-03-06T02:08:08.794Z,2.95
2018-03-06T02:09:15.311Z,3.03
2018-03-06T02:10:19.806Z,3.05
2018-03-06T02:11:25.308Z,3.07
2018-03-06T02:12:31.841Z,3.05
2018-03-06T02:13:36.334Z,3.13
2018-03-06T02:14:42.936Z,3.07
2018-03-06T02:15:47.341Z,3.07
2018-03-06T02:16:52.871Z,3.15
2018-03-06T02:17:59.381Z,3.23
2018-03-06T02:19:03.861Z,3.30
2018-03-06T02:20:10.387Z,3.30
2018-03-06T02:21:14.893Z,3.25
2018-03-06T02:22:20.398Z,3.24
2018-03-06T02:23:26.909Z,3.24
2018-03-06T02:24:31.416Z,3.30
2018-03-06T02:25:37.953Z,3.30
2018-03-06T02:26:42.433Z,3.23
2018-03-06T02:27:47.935Z,3.31
2018-03-06T02:28:54.444Z,3.28
2018-03-06T02:29:58.937Z,3.31
2018-03-06T02:31:05.514Z,3.23
2018-03-06T02:32:09.993Z,3.13
2018-03-06T02:33:15.458Z,3.15
2018-03-06T02:34:21.985Z,3.18
2018-03-06T02:35:26.471Z,3.12
2018-03-06T02:36:33.002Z,3.10
2018-03-06T02:37:37.495Z,3.07
2018-03-06T02:38:42.992Z,3.18
2018-03-06T02:39:49.508Z,3.10
2018-03-06T02:40:54.015Z,3.07
2018-03-06T02:42:00.525Z,3.07
2018-03-06T02:43:05.025Z,3.03
2018-03-06T02:44:10.538Z,3.05
2018-03-06T02:45:17.053Z,3.06
2018-03-06T02:46:21.565Z,3.03
2018-03-06T02:47:28.064Z,2.98
2018-03-06T02:48:32.557Z,3.00
2018-03-06T02:49:38.064Z,2.97
2018-03-06T02:50:44.583Z,2.97
2018-03-06T02:51:49.081Z,2.95
2018-03-06T02:52:55.596Z,2.98
2018-03-06T02:54:00.098Z,3.00
2018-03-06T02:55:05.611Z,3.02
2018-03-06T02:56:12.132Z,2.94
2018-03-06T02:57:16.618Z,2.92
2018-03-06T02:58:23.145Z,2.89
2018-03-06T02:59:27.623Z,2.81
2018-03-06T03:00:33.142Z,2.79
2018-03-06T03:01:39.652Z,2.79
2018-03-06T03:02:44.156Z,2.81
2018-03-06T03:03:50.664Z,2.73
2018-03-06T03:04:55.184Z,2.77
2018-03-06T03:06:00.668Z,2.77
2018-03-06T03:07:07.203Z,2.84
2018-03-06T03:08:11.700Z,2.79
2018-03-06T03:09:18.219Z,2.77
2018-03-06T03:10:22.704Z,2.77
2018-03-06T03:11:28.214Z,2.82
2018-03-06T03:12:34.727Z,2.89
2018-03-06T03:13:39.231Z,2.88
2018-03-06T03:14:45.734Z,2.88
2018-03-06T03:15:50.251Z,2.92
2018-03-06T03:16:55.749Z,2.85
2018-03-06T03:18:02.254Z,2.91
2018-03-06T03:19:06.762Z,2.82
2018-03-06T03:20:13.276Z,2.94
2018-03-06T03:21:17.786Z,2.94
2018-03-06T03:22:23.280Z,2.92
2018-03-06T03:23:29.809Z,2.92
2018-03-06T03:24:34.292Z,2.97
2018-03-06T03:25:40.816Z,2.92
2018-03-06T03:26:45.303Z,2.92
2018-03-06T03:27:50.816Z,2.95
2018-03-06T03:28:57.326Z,2.85
2018-03-06T03:30:01.833Z,2.77
2018-03-06T03:31:08.346Z,2.76
2018-03-06T03:32:12.846Z,2.81
2018-03-06T03:33:18.344Z,2.76
2018-03-06T03:34:24.870Z,2.77
2018-03-06T03:35:29.375Z,2.81
2018-03-06T03:36:35.872Z,2.76
2018-03-06T03:37:40.373Z,2.77
2018-03-06T03:38:45.879Z,2.76
2018-03-06T03:39:52.400Z,2.76
2018-03-06T03:40:56.903Z,2.69
2018-03-06T03:42:03.424Z,2.76
2018-03-06T03:43:07.915Z,2.76
2018-03-06T03:44:13.418Z,2.79
2018-03-06T03:45:19.950Z,2.69
2018-03-06T03:46:24.434Z,2.63
2018-03-06T03:47:30.951Z,2.63
2018-03-06T03:48:35.442Z,2.64
2018-03-06T03:49:40.953Z,2.56
2018-03-06T03:50:47.480Z,2.71
2018-03-06T03:51:51.967Z,2.63
2018-03-06T03:52:58.480Z,2.66
2018-03-06T03:54:02.978Z,2.61
2018-03-06T03:55:08.483Z,2.69
2018-03-06T03:56:15.002Z,2.63
2018-03-06T03:57:19.493Z,2.66
2018-03-06T03:58:26.034Z,2.66
2018-03-06T03:59:30.515Z,2.58
2018-03-06T04:00:36.018Z,2.56
2018-03-06T04:01:42.548Z,2.59
2018-03-06T04:02:47.030Z,2.59
2018-03-06T04:03:53.565Z,2.56
2018-03-06T04:04:58.049Z,2.53
2018-03-06T04:06:03.548Z,2.46
2018-03-06T04:07:10.071Z,2.53
2018-03-06T04:08:14.566Z,2.56
2018-03-06T04:09:21.087Z,2.44
2018-03-06T04:10:25.577Z,2.44
2018-03-06T04:11:31.078Z,2.35
2018-03-06T04:12:37.608Z,2.44
2018-03-06T04:13:42.098Z,2.48
2018-03-06T04:14:48.620Z,2.37
2018-03-06T04:15:53.110Z,2.40
2018-03-06T04:16:58.619Z,2.35
2018-03-06T04:18:05.142Z,2.38
2018-03-06T04:19:09.630Z,2.41
2018-03-06T04:20:16.148Z,2.41
2018-03-06T04:21:20.646Z,2.41
2018-03-06T04:22:26.151Z,2.45
2018-03-06T04:23:32.679Z,2.48
2018-03-06T04:24:37.165Z,2.45
2018-03-06T04:25:43.687Z,2.37
2018-03-06T04:26:48.181Z,2.35
2018-03-06T04:27:53.694Z,2.35
2018-03-06T04:29:00.218Z,2.31
2018-03-06T04:30:04.699Z,2.33
2018-03-06T04:31:11.222Z,2.37
2018-03-06T04:32:15.713Z,2.33
2018-03-06T04:33:21.220Z,2.37
2018-03-06T04:34:27.740Z,2.28
2018-03-06T04:35:32.240Z,2.30
2018-03-06T04:36:38.745Z,2.33
2018-03-06T04:37:43.240Z,2.28
2018-03-06T04:38:48.764Z,2.20
2018-03-06T04:39:55.268Z,2.16
2018-03-06T04:40:59.765Z,2.19
2018-03-06T04:42:06.290Z,2.15
2018-03-06T04:43:10.784Z,2.20
2018-03-06T04:44:16.289Z,2.12
2018-03-06T04:45:22.820Z,2.12
2018-03-06T04:46:27.303Z,2.08
2018-03-06T04:47:33.819Z,2.16
2018-03-06T04:48:38.311Z,2.12
2018-03-06T04:49:43.836Z,2.12
2018-03-06T04:50:50.332Z,2.08
2018-03-06T04:51:54.844Z,2.10
2018-03-06T04:53:01.351Z,2.08
2018-03-06T04:54:05.859Z,2.09
2018-03-06T04:55:11.355Z,2.06
2018-03-06T04:56:17.875Z,2.04
2018-03-06T04:57:22.371Z,2.02
2018-03-06T04:58:28.882Z,2.09
2018-03-06T04:59:33.368Z,2.02
2018-03-06T05:00:38.884Z,2.08
2018-03-06T05:01:45.391Z,2.04
2018-03-06T05:02:49.901Z,2.02
2018-03-06T05:03:56.414Z,2.02
2018-03-06T05:05:00.911Z,2.01
2018-03-06T05:06:06.412Z,2.02
2018-03-06T05:07:12.955Z,2.01
2018-03-06T05:08:17.424Z,2.04
2018-03-06T05:09:23.940Z,2.06
2018-03-06T05:10:28.449Z,2.08
2018-03-06T05:11:33.955Z,2.04
2018-03-06T05:12:40.473Z,2.04
2018-03-06T05:13:44.955Z,2.13
2018-03-06T05:14:51.478Z,2.06
2018-03-06T05:15:55.989Z,2.02
2018-03-06T05:17:01.476Z,2.04
2018-03-06T05:18:07.997Z,2.16
2018-03-06T05:19:12.494Z,2.12
2018-03-06T05:20:19.011Z,2.13
2018-03-06T05:21:23.515Z,2.23
2018-03-06T05:22:29.016Z,2.20
2018-03-06T05:23:35.570Z,2.17
2018-03-06T05:24:40.075Z,2.22
2018-03-06T05:25:46.543Z,2.23
2018-03-06T05:26:51.049Z,2.30
2018-03-06T05:27:56.572Z,2.26
2018-03-06T05:29:03.073Z,2.31
2018-03-06T05:30:07.557Z,2.26
2018-03-06T05:31:14.086Z,2.17
2018-03-06T05:32:18.566Z,2.28
2018-03-06T05:33:24.084Z,2.27
2018-03-06T05:34:30.585Z,2.26
2018-03-06T05:35:35.108Z,2.19
2018-03-06T05:36:41.611Z,2.20
2018-03-06T05:37:46.095Z,2.20
2018-03-06T05:38:51.609Z,2.17
2018-03-06T05:39:58.135Z,2.35
2018-03-06T05:41:02.617Z,2.33
2018-03-06T05:42:09.148Z,2.28
2018-03-06T05:43:13.624Z,2.30
2018-03-06T05:44:19.155Z,2.28
2018-03-06T05:45:25.659Z,2.30
2018-03-06T05:46:30.155Z,2.27
2018-03-06T05:47:36.686Z,2.19
2018-03-06T05:48:41.171Z,2.19
2018-03-06T05:49:46.661Z,2.31
2018-03-06T05:50:53.191Z,2.31
2018-03-06T05:51:57.683Z,2.31
2018-03-06T05:53:04.201Z,2.33
2018-03-06T05:54:08.699Z,2.35
2018-03-06T05:55:14.199Z,2.40
2018-03-06T05:56:20.720Z,2.38
2018-03-06T05:57:25.223Z,2.41
2018-03-06T05:58:31.730Z,2.56
2018-03-06T05:59:36.229Z,2.59
2018-03-06T06:00:41.737Z,2.55
2018-03-06T06:01:48.247Z,2.59
2018-03-06T06:02:52.748Z,2.67
2018-03-06T06:03:59.262Z,2.69
2018-03-06T06:05:03.763Z,2.77
2018-03-06T06:06:09.270Z,2.79
2018-03-06T06:07:15.784Z,2.74
2018-03-06T06:08:20.286Z,2.81
2018-03-06T06:09:26.838Z,2.84
2018-03-06T06:10:31.301Z,2.87
2018-03-06T06:11:36.812Z,2.91
2018-03-06T06:12:43.340Z,2.89
2018-03-06T06:13:47.916Z,2.91
2018-03-06T06:14:54.334Z,2.91
2018-03-06T06:15:58.836Z,2.87
2018-03-06T06:17:04.339Z,2.79
2018-03-06T06:18:10.845Z,2.89
2018-03-06T06:19:15.354Z,2.79
2018-03-06T06:20:21.867Z,2.79
2018-03-06T06:21:26.362Z,2.77
2018-03-06T06:22:31.868Z,2.81
2018-03-06T06:23:38.383Z,2.81
2018-03-06T06:24:42.883Z,2.88
2018-03-06T06:25:49.396Z,2.91
2018-03-06T06:26:53.898Z,2.85
2018-03-06T06:27:59.399Z,2.95
2018-03-06T06:29:05.924Z,2.94
2018-03-06T06:30:10.429Z,2.94
2018-03-06T06:31:16.936Z,2.91
2018-03-06T06:32:21.424Z,3.02
2018-03-06T06:33:26.935Z,3.02
2018-03-06T06:34:33.454Z,3.02
2018-03-06T06:35:37.949Z,3.00
2018-03-06T06:36:44.464Z,2.98
2018-03-06T06:37:48.955Z,2.97
2018-03-06T06:38:54.477Z,2.97
2018-03-06T06:40:00.984Z,3.09
2018-03-06T06:41:05.488Z,3.06
2018-03-06T06:42:12.003Z,3.05
2018-03-06T06:43:16.495Z,3.13
2018-03-06T06:44:22.003Z,3.15
2018-03-06T06:45:28.524Z,3.18
2018-03-06T06:46:33.011Z,3.21
2018-03-06T06:47:39.526Z,3.24
2018-03-06T06:48:44.034Z,3.30
2018-03-06T06:49:49.533Z,3.24
2018-03-06T06:50:56.063Z,3.21
2018-03-06T06:52:00.571Z,3.23
2018-03-06T06:53:07.071Z,3.28
2018-03-06T06:54:11.578Z,3.25
2018-03-06T06:55:17.083Z,3.30
2018-03-06T06:56:23.591Z,3.27
2018-03-06T06:57:28.083Z,3.25
2018-03-06T06:58:34.600Z,3.23
2018-03-06T06:59:39.118Z,3.23
2018-03-06T07:00:44.611Z,3.31
2018-03-06T07:01:51.153Z,3.34
2018-03-06T07:02:55.620Z,3.40
2018-03-06T07:04:02.205Z,3.43
2018-03-06T07:05:06.642Z,3.43
2018-03-06T07:06:12.151Z,3.47
2018-03-06T07:07:18.669Z,3.44
2018-03-06T07:08:23.155Z,3.53
2018-03-06T07:09:29.671Z,3.53
2018-03-06T07:10:34.174Z,3.46
2018-03-06T07:11:39.669Z,3.65
2018-03-06T07:12:46.194Z,3.47
2018-03-06T07:13:50.688Z,3.54
2018-03-06T07:14:57.215Z,3.64
2018-03-06T07:16:01.707Z,3.64
2018-03-06T07:17:07.210Z,3.61
2018-03-06T07:18:13.740Z,3.68
2018-03-06T07:19:18.225Z,3.67
2018-03-06T07:20:24.761Z,3.71
2018-03-06T07:21:29.245Z,3.72
2018-03-06T07:22:34.748Z,3.82
2018-03-06T07:23:41.298Z,3.76
2018-03-06T07:24:45.766Z,3.76
2018-03-06T07:25:52.282Z,3.83
2018-03-06T07:26:56.774Z,3.86
2018-03-06T07:28:02.302Z,3.97
2018-03-06T07:29:08.811Z,4.07
2018-03-06T07:30:13.304Z,4.19
2018-03-06T07:31:19.855Z,4.28
2018-03-06T07:32:24.311Z,4.36
2018-03-06T07:33:29.833Z,4.50
2018-03-06T07:34:36.348Z,4.57
2018-03-06T07:35:40.856Z,4.65
2018-03-06T07:36:47.363Z,4.69
2018-03-06T07:37:51.945Z,4.77
2018-03-06T07:38:57.361Z,4.84
2018-03-06T07:40:03.881Z,4.99
2018-03-06T07:41:08.374Z,5.09
2018-03-06T07:42:14.899Z,5.05
2018-03-06T07:43:19.389Z,5.14
2018-03-06T07:44:24.906Z,5.20
2018-03-06T07:45:31.420Z,5.27
2018-03-06T07:46:35.910Z,5.40
2018-03-06T07:47:42.431Z,5.45
2018-03-06T07:48:46.930Z,5.63
2018-03-06T07:49:52.439Z,5.67
2018-03-06T07:50:58.952Z,5.81
2018-03-06T07:52:03.459Z,5.75
2018-03-06T07:53:09.975Z,6.06
2018-03-06T07:54:14.475Z,6.10
2018-03-06T07:55:20.005Z,6.25
2018-03-06T07:56:26.495Z,6.32
2018-03-06T07:57:31.007Z,6.44
2018-03-06T07:58:37.525Z,6.50
2018-03-06T07:59:42.027Z,6.59
2018-03-06T08:00:47.513Z,6.62
2018-03-06T08:01:54.034Z,6.73
2018-03-06T08:02:58.542Z,6.79
2018-03-06T08:04:05.063Z,6.91
2018-03-06T08:05:09.557Z,6.99
2018-03-06T08:06:15.070Z,7.09
2018-03-06T08:07:21.590Z,7.16
2018-03-06T08:08:26.087Z,7.12
2018-03-06T08:09:32.611Z,7.26
2018-03-06T08:10:37.118Z,7.27
2018-03-06T08:11:42.611Z,7.35
2018-03-06T08:12:49.136Z,7.42
2018-03-06T08:13:53.648Z,7.47
2018-03-06T08:15:00.154Z,7.53
2018-03-06T08:16:04.665Z,7.62
2018-03-06T08:17:10.183Z,7.58
2018-03-06T08:18:16.678Z,7.72
2018-03-06T08:19:21.185Z,7.74
2018-03-06T08:20:27.691Z,7.74
2018-03-06T08:21:32.199Z,7.85
2018-03-06T08:22:37.721Z,7.84
2018-03-06T08:23:44.233Z,7.82
2018-03-06T08:24:48.730Z,7.93
2018-03-06T08:25:55.252Z,7.94
2018-03-06T08:26:59.763Z,8.02
2018-03-06T08:28:05.258Z,8.00
2018-03-06T08:29:11.804Z,8.10
2018-03-06T08:30:16.348Z,8.17
2018-03-06T08:31:22.801Z,8.15
2018-03-06T08:32:27.317Z,8.18
2018-03-06T08:33:32.817Z,8.18
2018-03-06T08:34:39.332Z,8.21
2018-03-06T08:35:43.841Z,8.14
2018-03-06T08:36:50.354Z,8.25
2018-03-06T08:37:54.846Z,8.30
2018-03-06T08:39:00.370Z,8.30
2018-03-06T08:40:07.000Z,8.37
2018-03-06T08:41:11.402Z,8.42
2018-03-06T08:42:17.901Z,8.44
2018-03-06T08:43:22.420Z,8.57
2018-03-06T08:44:27.921Z,8.63
2018-03-06T08:45:34.466Z,8.65
2018-03-06T08:46:38.943Z,8.66
2018-03-06T08:47:45.457Z,8.63
2018-03-06T08:48:49.960Z,8.60
2018-03-06T08:49:55.471Z,8.81
2018-03-06T08:51:01.983Z,8.76
2018-03-06T08:52:06.478Z,8.81
2018-03-06T08:53:13.002Z,8.83
2018-03-06T08:54:17.511Z,8.81
2018-03-06T08:55:23.023Z,8.87
2018-03-06T08:56:29.541Z,9.02
2018-03-06T08:57:34.038Z,8.87
2018-03-06T08:58:40.554Z,9.04
2018-03-06T08:59:45.070Z,8.99
2018-03-06T09:00:50.695Z,9.02
2018-03-06T09:01:57.107Z,9.05
2018-03-06T09:03:01.608Z,9.18
2018-03-06T09:04:08.119Z,9.24
2018-03-06T09:05:12.615Z,9.23
2018-03-06T09:06:18.136Z,9.21
2018-03-06T09:07:24.651Z,9.24
2018-03-06T09:08:29.153Z,9.32
2018-03-06T09:09:35.668Z,9.35
2018-03-06T09:10:40.189Z,9.48
2018-03-06T09:11:45.689Z,9.53
2018-03-06T09:12:52.204Z,9.53
2018-03-06T09:13:56.722Z,9.70
2018-03-06T09:15:03.228Z,9.83
2018-03-06T09:16:07.736Z,9.81
2018-03-06T09:17:13.250Z,9.99
2018-03-06T09:18:19.762Z,10.00
2018-03-06T09:19:24.273Z,10.09
2018-03-06T09:20:30.804Z,10.21
2018-03-06T09:21:35.298Z,10.34
2018-03-06T09:22:40.789Z,10.33
2018-03-06T09:23:47.325Z,10.51
2018-03-06T09:24:51.813Z,10.53
2018-03-06T09:25:58.352Z,10.58
2018-03-06T09:27:02.851Z,10.63
2018-03-06T09:28:08.349Z,10.80
2018-03-06T09:29:14.879Z,10.74
2018-03-06T09:30:19.386Z,10.84
2018-03-06T09:31:25.908Z,10.92
2018-03-06T09:32:30.397Z,11.02
2018-03-06T09:33:35.960Z,11.03
2018-03-06T09:34:42.448Z,11.06
2018-03-06T09:35:46.938Z,11.09
2018-03-06T09:36:53.503Z,11.19
2018-03-06T09:37:57.972Z,11.25
2018-03-06T09:39:03.472Z,11.36
2018-03-06T09:40:09.997Z,11.35
2018-03-06T09:41:14.506Z,11.56
2018-03-06T09:42:21.017Z,11.52
2018-03-06T09:43:25.525Z,11.54
2018-03-06T09:44:31.037Z,11.64
2018-03-06T09:45:37.558Z,11.74
2018-03-06T09:46:42.055Z,11.83
2018-03-06T09:47:48.588Z,11.78
2018-03-06T09:48:53.083Z,11.86
2018-03-06T09:49:58.594Z,11.94
2018-03-06T09:51:05.112Z,12.02
2018-03-06T09:52:09.625Z,12.08
2018-03-06T09:53:16.145Z,12.20
2018-03-06T09:54:20.661Z,12.30
2018-03-06T09:55:26.156Z,12.27
2018-03-06T09:56:32.679Z,12.29
2018-03-06T09:57:37.204Z,12.39
2018-03-06T09:58:43.711Z,12.46
2018-03-06T09:59:48.202Z,12.52
2018-03-06T10:00:53.736Z,12.60
2018-03-06T10:02:00.279Z,12.71
2018-03-06T10:03:04.797Z,12.71
2018-03-06T10:04:11.271Z,12.79
2018-03-06T10:05:15.780Z,12.85
2018-03-06T10:06:21.297Z,12.93
2018-03-06T10:07:27.798Z,12.92
2018-03-06T10:08:32.323Z,12.97
2018-03-06T10:09:38.847Z,13.04
2018-03-06T10:10:43.335Z,13.18
2018-03-06T10:11:48.851Z,13.18
2018-03-06T10:12:55.375Z,13.25
2018-03-06T10:13:59.876Z,13.29
2018-03-06T10:15:06.399Z,13.27
2018-03-06T10:16:10.909Z,13.38
2018-03-06T10:17:16.448Z,13.47
2018-03-06T10:18:22.938Z,13.52
2018-03-06T10:19:27.459Z,13.56
2018-03-06T10:20:33.978Z,13.54
2018-03-06T10:21:38.467Z,13.61
2018-03-06T10:22:43.990Z,13.61
2018-03-06T10:23:50.569Z,13.56
2018-03-06T10:24:55.033Z,13.59
2018-03-06T10:26:01.543Z,13.62
2018-03-06T10:27:06.051Z,13.62
2018-03-06T10:28:11.554Z,13.76
2018-03-06T10:29:18.076Z,13.74
2018-03-06T10:30:22.583Z,13.77
2018-03-06T10:31:29.108Z,13.80
2018-03-06T10:32:33.603Z,13.87
2018-03-06T10:33:39.118Z,13.91
2018-03-06T10:34:45.650Z,13.81
2018-03-06T10:35:50.145Z,13.89
2018-03-06T10:36:56.678Z,13.76
2018-03-06T10:38:01.185Z,13.80
2018-03-06T10:39:06.694Z,13.89
2018-03-06T10:40:13.212Z,13.94
2018-03-06T10:41:17.732Z,13.84
2018-03-06T10:42:24.245Z,13.89
2018-03-06T10:43:28.750Z,13.91
2018-03-06T10:44:34.263Z,13.84
2018-03-06T10:45:40.802Z,13.79
2018-03-06T10:46:45.289Z,13.80
2018-03-06T10:47:51.828Z,13.81
2018-03-06T10:48:56.321Z,13.89
2018-03-06T10:50:01.841Z,13.77
2018-03-06T10:51:08.355Z,13.80
2018-03-06T10:52:12.901Z,13.89
2018-03-06T10:53:19.405Z,13.89
2018-03-06T10:54:23.891Z,13.87
2018-03-06T10:55:29.417Z,13.81
2018-03-06T10:56:35.944Z,13.91
2018-03-06T10:57:40.443Z,13.91
2018-03-06T10:58:46.960Z,13.87
2018-03-06T10:59:51.462Z,13.95
2018-03-06T11:00:56.990Z,14.02
2018-03-06T11:02:03.503Z,14.04
2018-03-06T11:03:08.017Z,14.06
2018-03-06T11:04:14.526Z,14.13
2018-03-06T11:05:19.033Z,14.19
2018-03-06T11:06:24.643Z,14.27
2018-03-06T11:07:31.074Z,14.17
2018-03-06T11:08:35.596Z,14.29
2018-03-06T11:09:42.108Z,14.34
2018-03-06T11:10:46.612Z,14.39
2018-03-06T11:11:52.142Z,14.35
2018-03-06T11:12:58.647Z,14.35
2018-03-06T11:14:03.166Z,14.37
2018-03-06T11:15:09.672Z,14.35
2018-03-06T11:16:14.228Z,14.38
2018-03-06T11:17:19.712Z,14.43
2018-03-06T11:18:26.287Z,14.54
2018-03-06T11:19:30.764Z,14.57
2018-03-06T11:20:37.272Z,14.60
2018-03-06T11:21:41.866Z,14.56
2018-03-06T11:22:47.340Z,14.57
2018-03-06T11:23:53.821Z,14.74
2018-03-06T11:24:58.293Z,14.74
2018-03-06T11:26:04.818Z,14.78
2018-03-06T11:27:09.370Z,14.74
2018-03-06T11:28:14.835Z,14.75
2018-03-06T11:29:21.376Z,14.84
2018-03-06T11:30:25.873Z,14.87
2018-03-06T11:31:32.388Z,14.99
2018-03-06T11:32:36.903Z,15.03
2018-03-06T11:33:42.422Z,15.06
2018-03-06T11:34:48.946Z,15.08
2018-03-06T11:35:53.451Z,15.06
2018-03-06T11:36:59.972Z,15.20
2018-03-06T11:38:04.475Z,15.19
2018-03-06T11:39:09.981Z,15.13
2018-03-06T11:40:16.519Z,15.13
2018-03-06T11:41:21.019Z,15.20
2018-03-06T11:42:27.554Z,15.19
2018-03-06T11:43:32.045Z,15.24
2018-03-06T11:44:37.547Z,15.20
2018-03-06T11:45:44.081Z,15.17
2018-03-06T11:46:48.591Z,15.17
2018-03-06T11:47:55.122Z,15.23
2018-03-06T11:48:59.614Z,15.20
2018-03-06T11:50:05.131Z,15.28
2018-03-06T11:51:11.653Z,15.20
2018-03-06T11:52:16.163Z,15.30
2018-03-06T11:53:22.698Z,15.26
2018-03-06T11:54:27.184Z,15.36
2018-03-06T11:55:32.703Z,15.35
2018-03-06T11:56:39.322Z,15.39
2018-03-06T11:57:43.757Z,15.39
2018-03-06T11:58:50.259Z,15.41
2018-03-06T11:59:54.766Z,15.52
2018-03-06T12:01:00.296Z,15.57
2018-03-06T12:02:06.885Z,15.56
2018-03-06T12:03:11.340Z,15.60
2018-03-06T12:04:17.877Z,15.63
2018-03-06T12:05:22.363Z,15.67
2018-03-06T12:06:27.880Z,15.74
2018-03-06T12:07:34.402Z,15.85
2018-03-06T12:08:38.904Z,15.81
2018-03-06T12:09:45.417Z,15.78
2018-03-06T12:10:49.917Z,15.86
2018-03-06T12:11:55.436Z,15.92
2018-03-06T12:13:01.974Z,15.99
2018-03-06T12:14:06.473Z,15.97
2018-03-06T12:15:12.993Z,16.03
2018-03-06T12:16:17.502Z,16.15
2018-03-06T12:17:23.016Z,16.20
2018-03-06T12:18:29.548Z,16.31
2018-03-06T12:19:34.043Z,16.22
2018-03-06T12:20:40.576Z,16.33
2018-03-06T12:21:45.087Z,16.38
2018-03-06T12:22:50.584Z,16.48
2018-03-06T12:23:57.124Z,16.45
2018-03-06T12:25:01.615Z,16.52
2018-03-06T12:26:08.181Z,16.62
2018-03-06T12:27:12.684Z,16.74
2018-03-06T12:28:18.184Z,16.80
2018-03-06T12:29:24.823Z,16.80
2018-03-06T12:30:29.260Z,16.90
2018-03-06T12:31:35.734Z,16.90
2018-03-06T12:32:40.351Z,16.95
2018-03-06T12:33:45.751Z,16.98
2018-03-06T12:34:52.313Z,16.98
2018-03-06T12:35:56.801Z,17.08
2018-03-06T12:37:03.314Z,17.29
2018-03-06T12:38:07.813Z,17.38
2018-03-06T12:39:13.355Z,17.57
2018-03-06T12:40:19.890Z,17.89
2018-03-06T12:41:24.366Z,17.94
2018-03-06T12:42:30.897Z,18.18
2018-03-06T12:43:35.415Z,18.40
2018-03-06T12:44:40.905Z,18.55
2018-03-06T12:45:47.489Z,18.77
2018-03-06T12:46:51.941Z,18.90
2018-03-06T12:47:58.482Z,18.92
2018-03-06T12:49:02.978Z,19.15
2018-03-06T12:50:08.507Z,19.11
2018-03-06T12:51:15.030Z,19.17
2018-03-06T12:52:19.539Z,19.20
2018-03-06T12:53:26.054Z,19.25
2018-03-06T12:54:30.572Z,19.17
2018-03-06T12:55:36.084Z,19.32
2018-03-06T12:56:42.604Z,19.29
2018-03-06T12:57:47.108Z,19.48
2018-03-06T12:58:53.648Z,19.50
2018-03-06T12:59:58.175Z,19.60
2018-03-06T13:01:03.665Z,19.68
2018-03-06T13:02:10.208Z,19.76
2018-03-06T13:03:14.729Z,19.86
2018-03-06T13:04:21.230Z,19.95
2018-03-06T13:05:25.737Z,19.98
2018-03-06T13:06:31.251Z,20.02
2018-03-06T13:07:37.790Z,20.00
2018-03-06T13:08:42.297Z,19.95
2018-03-06T13:09:48.836Z,19.91
2018-03-06T13:10:53.328Z,19.88
2018-03-06T13:11:58.840Z,19.95
2018-03-06T13:13:05.369Z,20.09
2018-03-06T13:14:09.881Z,20.18
2018-03-06T13:15:16.413Z,20.16
2018-03-06T13:16:20.932Z,20.43
2018-03-06T13:17:26.430Z,20.74
2018-03-06T13:18:32.965Z,21.04
2018-03-06T13:19:37.489Z,21.26
2018-03-06T13:20:44.005Z,21.34
2018-03-06T13:21:48.570Z,21.39
2018-03-06T13:22:54.028Z,21.41
2018-03-06T13:24:00.549Z,21.34
2018-03-06T13:25:05.061Z,21.35
2018-03-06T13:26:11.595Z,21.36
2018-03-06T13:27:16.125Z,21.21
2018-03-06T13:28:21.625Z,21.05
2018-03-06T13:29:28.199Z,20.91
2018-03-06T13:30:32.679Z,21.08
2018-03-06T13:31:39.205Z,20.99
2018-03-06T13:32:43.711Z,21.21
2018-03-06T13:33:49.268Z,21.35
2018-03-06T13:34:55.767Z,21.59
2018-03-06T13:36:00.250Z,21.98
2018-03-06T13:37:06.810Z,22.32
2018-03-06T13:38:11.291Z,22.68
2018-03-06T13:39:16.827Z,23.05
2018-03-06T13:40:23.333Z,23.53
2018-03-06T13:41:27.872Z,23.79
2018-03-06T13:42:34.387Z,24.14
2018-03-06T13:43:38.884Z,24.49
2018-03-06T13:44:44.411Z,24.57
2018-03-06T13:45:50.930Z,24.63
2018-03-06T13:46:55.456Z,24.56
2018-03-06T13:48:01.988Z,24.47
2018-03-06T13:49:06.493Z,24.35
2018-03-06T13:50:12.009Z,24.38
2018-03-06T13:51:18.543Z,24.56
2018-03-06T13:52:23.100Z,24.54
2018-03-06T13:53:29.588Z,24.60
2018-03-06T13:54:34.100Z,24.82
2018-03-06T13:55:39.605Z,24.95
2018-03-06T13:56:46.145Z,25.00
2018-03-06T13:57:50.685Z,25.07
2018-03-06T13:58:57.180Z,25.22
2018-03-06T14:00:01.706Z,25.27
2018-03-06T14:01:07.367Z,25.38
2018-03-06T14:02:13.796Z,25.46
2018-03-06T14:03:18.247Z,25.54
2018-03-06T14:04:24.794Z,25.59
2018-03-06T14:05:29.319Z,25.59
2018-03-06T14:06:34.819Z,25.62
2018-03-06T14:07:41.348Z,25.67
2018-03-06T14:08:45.855Z,25.69
2018-03-06T14:09:52.402Z,25.75
2018-03-06T14:10:56.900Z,25.52
2018-03-06T14:12:02.422Z,25.06
2018-03-06T14:13:08.946Z,24.59
2018-03-06T14:14:13.464Z,24.19
2018-03-06T14:15:20.005Z,23.58
2018-03-06T14:16:24.500Z,23.24
2018-03-06T14:17:30.025Z,22.90
2018-03-06T14:18:36.564Z,22.78
2018-03-06T14:19:41.066Z,22.67
2018-03-06T14:20:48.426Z,22.17
2018-03-06T14:21:52.122Z,21.71